Time;durP1;ratioP1;P1;durP2;ratioP2;P2;SDS_P1;SDS_P2;PMS_P1;PMS_P2;Temp;Humidity;BMP_temperature;BMP_pressure;BME280_temperature;BME280_humidity;BME280_pressure;Samples;Min_cycle;Max_cycle;Signal;HPM_P1;HPM_P2
2021/12/05 00:18:14;;;;;;;;;;;20.70;40.00;;;;;;5121321;27;19920;-65
2021/12/05 00:23:30;;;;;;;;;;;20.70;40.00;;;;;;5111945;27;19920;-64
2021/12/05 00:26:00;;;;;;;;;;;20.70;40.00;;;;;;5104868;28;19932;-65
2021/12/05 00:29:05;;;;;;;;;;;20.70;40.00;;;;;;5111328;27;20375;-65
2021/12/05 00:34:35;;;;;;;;;;;20.70;40.00;;;;;;5092958;28;20258;-64
2021/12/05 00:40:18;;;;;;;;;;;20.70;40.00;;;;;;5104785;28;19972;-64
2021/12/05 00:43:17;;;;;;;;;;;20.70;40.60;;;;;;5111853;27;19953;-64
2021/12/05 01:00:33;;;;;;;;;;;20.70;40.00;;;;;;5087697;28;19934;-50
2021/12/05 01:11:51;;;;;;;;;;;20.70;40.00;;;;;;5057888;28;19928;-52
2021/12/05 01:14:32;;;;;;;;;;;20.70;40.00;;;;;;5111013;28;19963;-53
2021/12/05 01:16:59;;;;;;;;;;;20.70;40.10;;;;;;5090912;28;19935;-52
2021/12/05 01:19:28;;;;;;;;;;;20.70;40.00;;;;;;5084443;28;19951;-48
2021/12/05 01:21:56;;;;;;;;;;;20.70;40.00;;;;;;5082090;28;19924;-51
2021/12/05 01:24:30;;;;;;;;;;;20.70;40.00;;;;;;5090243;28;20326;-52
2021/12/05 01:27:05;;;;;;;;;;;20.70;40.10;;;;;;5088579;28;19928;-49
2021/12/05 01:29:41;;;;;;;;;;;20.70;40.10;;;;;;5090958;28;20448;-49
2021/12/05 01:32:16;;;;;;;;;;;20.70;40.10;;;;;;5102043;28;19924;-50
2021/12/05 01:34:54;;;;;;;;;;;20.70;40.10;;;;;;5091279;28;19924;-53
2021/12/05 01:37:30;;;;;;;;;;;20.70;40.10;;;;;;5109955;28;20369;-51
2021/12/05 01:40:18;;;;;;;;;;;20.70;40.10;;;;;;5085745;28;19927;-53
2021/12/05 01:43:12;;;;;;;;;;;20.70;40.10;;;;;;5108683;28;19930;-53
2021/12/05 01:46:10;;;;;;;;;;;20.70;40.10;;;;;;5104173;28;19977;-53
2021/12/05 01:49:12;;;;;;;;;;;20.70;40.10;;;;;;5085406;28;19924;-47
2021/12/05 02:31:33;;;;;;;;;;;20.70;40.10;;;;;;5089308;28;19936;-49
2021/12/05 02:34:13;;;;;;;;;;;20.60;40.10;;;;;;5071956;28;19978;-46
2021/12/05 02:36:58;;;;;;;;;;;20.70;40.20;;;;;;5070995;28;19931;-47
2021/12/05 02:39:37;;;;;;;;;;;20.60;40.10;;;;;;5069219;28;19970;-47
2021/12/05 02:42:10;;;;;;;;;;;20.60;40.10;;;;;;5070017;28;19974;-48
2021/12/05 02:44:39;;;;;;;;;;;20.70;40.20;;;;;;5075362;28;19924;-52
2021/12/05 02:47:08;;;;;;;;;;;20.60;40.10;;;;;;5085910;28;19931;-51
2021/12/05 02:49:36;;;;;;;;;;;20.60;40.10;;;;;;5068467;28;20336;-49
2021/12/05 02:52:06;;;;;;;;;;;20.70;40.20;;;;;;5070361;28;19929;-50
2021/12/05 02:54:37;;;;;;;;;;;20.70;40.20;;;;;;5084696;28;19936;-51
2021/12/05 02:57:04;;;;;;;;;;;20.60;40.20;;;;;;5085854;28;19933;-47
2021/12/05 02:59:42;;;;;;;;;;;20.70;40.30;;;;;;5093848;28;19983;-46
2021/12/05 03:02:12;;;;;;;;;;;20.70;40.20;;;;;;5104653;28;19925;-47
2021/12/05 03:04:41;;;;;;;;;;;20.70;40.20;;;;;;5085260;28;20357;-46
2021/12/05 03:07:10;;;;;;;;;;;20.70;40.20;;;;;;5085196;28;19924;-50
2021/12/05 03:09:37;;;;;;;;;;;20.70;40.20;;;;;;5067813;28;19975;-53
2021/12/05 03:12:04;;;;;;;;;;;20.70;40.20;;;;;;5085279;28;20012;-47
2021/12/05 03:14:31;;;;;;;;;;;20.70;40.30;;;;;;5085318;28;19940;-47
2021/12/05 03:16:58;;;;;;;;;;;20.70;40.20;;;;;;5089066;28;20051;-48
2021/12/05 03:19:24;;;;;;;;;;;20.60;40.20;;;;;;5075153;28;19931;-51
2021/12/05 03:21:52;;;;;;;;;;;20.70;40.20;;;;;;5070709;28;19925;-52
2021/12/05 03:24:21;;;;;;;;;;;20.70;40.20;;;;;;5056780;28;20027;-50
2021/12/05 03:26:48;;;;;;;;;;;20.70;40.20;;;;;;5053848;28;19931;-51
2021/12/05 03:29:15;;;;;;;;;;;20.70;40.20;;;;;;5055313;28;19932;-48
2021/12/05 03:31:42;;;;;;;;;;;20.70;40.30;;;;;;5063322;28;20451;-50
2021/12/05 03:34:09;;;;;;;;;;;20.70;40.20;;;;;;5073421;28;19928;-48
2021/12/05 03:36:36;;;;;;;;;;;20.70;40.20;;;;;;5075442;28;19929;-51
2021/12/05 03:39:03;;;;;;;;;;;20.70;40.20;;;;;;5054412;28;20015;-52
2021/12/05 03:41:31;;;;;;;;;;;20.70;40.20;;;;;;5056303;28;19925;-50
2021/12/05 03:43:58;;;;;;;;;;;20.70;40.20;;;;;;5071755;28;19924;-48
2021/12/05 03:46:25;;;;;;;;;;;20.70;40.20;;;;;;5070972;28;20631;-50
2021/12/05 03:48:52;;;;;;;;;;;20.70;40.20;;;;;;5069803;28;20432;-52
2021/12/05 03:51:19;;;;;;;;;;;20.70;40.30;;;;;;5070417;28;19978;-47
2021/12/05 03:53:46;;;;;;;;;;;20.70;40.30;;;;;;5071029;28;20541;-51
2021/12/05 03:56:13;;;;;;;;;;;20.70;40.30;;;;;;5071738;28;20008;-47
2021/12/05 03:58:41;;;;;;;;;;;20.70;40.30;;;;;;5069917;28;19931;-52
2021/12/05 04:01:08;;;;;;;;;;;20.70;40.30;;;;;;5075685;28;19931;-51
2021/12/05 04:03:35;;;;;;;;;;;20.70;40.30;;;;;;5051452;28;19925;-53
2021/12/05 04:06:02;;;;;;;;;;;20.70;40.30;;;;;;5056706;28;19968;-50
2021/12/05 04:08:29;;;;;;;;;;;20.70;40.30;;;;;;5053193;28;19967;-52
2021/12/05 04:11:02;;;;;;;;;;;20.70;40.30;;;;;;5077712;28;19924;-48
2021/12/05 04:13:29;;;;;;;;;;;20.70;40.40;;;;;;5054630;28;19960;-48
2021/12/05 04:15:57;;;;;;;;;;;20.70;40.30;;;;;;5095396;28;19925;-47
2021/12/05 04:18:25;;;;;;;;;;;20.70;40.30;;;;;;5070369;28;20023;-47
2021/12/05 04:20:51;;;;;;;;;;;20.70;40.30;;;;;;5070346;28;19932;-49
2021/12/05 04:23:18;;;;;;;;;;;20.70;40.30;;;;;;5060358;28;20051;-50
2021/12/05 04:25:48;;;;;;;;;;;20.70;40.30;;;;;;5069426;28;19925;-51
2021/12/05 04:28:15;;;;;;;;;;;20.70;40.30;;;;;;5062035;28;19931;-54
2021/12/05 04:30:42;;;;;;;;;;;20.70;40.30;;;;;;5056693;28;20314;-53
2021/12/05 04:33:10;;;;;;;;;;;20.70;40.30;;;;;;5075848;28;20027;-50
2021/12/05 04:35:37;;;;;;;;;;;20.70;40.40;;;;;;5069452;28;20079;-51
2021/12/05 04:38:04;;;;;;;;;;;20.70;40.30;;;;;;5052126;28;19933;-50
2021/12/05 04:40:32;;;;;;;;;;;20.70;40.30;;;;;;5067611;28;20011;-53
2021/12/05 04:43:00;;;;;;;;;;;20.70;40.30;;;;;;5052929;28;19933;-49
2021/12/05 04:45:28;;;;;;;;;;;20.70;40.40;;;;;;5068966;28;19924;-48
2021/12/05 04:47:55;;;;;;;;;;;20.70;40.40;;;;;;5052298;28;20022;-47
2021/12/05 04:50:23;;;;;;;;;;;20.70;40.40;;;;;;5071925;28;20011;-51
2021/12/05 04:52:50;;;;;;;;;;;20.70;40.40;;;;;;5059985;28;20436;-51
2021/12/05 04:55:17;;;;;;;;;;;20.70;40.40;;;;;;5067891;28;19935;-47
2021/12/05 04:57:44;;;;;;;;;;;20.70;40.40;;;;;;5069300;28;20358;-53
2021/12/05 05:00:12;;;;;;;;;;;20.70;40.40;;;;;;5070061;28;19925;-47
2021/12/05 05:02:39;;;;;;;;;;;20.70;40.40;;;;;;5070548;28;19938;-51
2021/12/05 05:05:07;;;;;;;;;;;20.70;41.00;;;;;;5052448;28;19925;-46
2021/12/05 05:07:36;;;;;;;;;;;20.70;40.40;;;;;;5068588;28;19924;-47
2021/12/05 05:10:05;;;;;;;;;;;20.70;40.40;;;;;;5070275;28;19971;-47
2021/12/05 05:12:32;;;;;;;;;;;20.70;40.40;;;;;;5057977;28;19928;-49
2021/12/05 05:14:59;;;;;;;;;;;20.70;40.40;;;;;;5067428;28;19933;-51
2021/12/05 05:17:26;;;;;;;;;;;20.70;40.40;;;;;;5067116;28;19932;-48
2021/12/05 05:19:56;;;;;;;;;;;20.70;40.40;;;;;;5072630;28;20022;-51
2021/12/05 05:22:33;;;;;;;;;;;20.70;40.40;;;;;;5058982;28;19967;-48
2021/12/05 05:25:31;;;;;;;;;;;20.70;40.40;;;;;;5050865;28;20016;-48
2021/12/05 05:47:16;;;;;;;;;;;20.70;40.40;;;;;;4991334;28;19949;-47
2021/12/05 05:49:57;;;;;;;;;;;20.60;40.40;;;;;;5034268;28;20388;-50
2021/12/05 05:52:24;;;;;;;;;;;20.70;40.40;;;;;;5061753;28;20050;-49
2021/12/05 05:54:55;;;;;;;;;;;20.70;40.40;;;;;;5067848;28;19929;-50
2021/12/05 05:57:26;;;;;;;;;;;20.70;40.50;;;;;;5052636;28;20335;-51
2021/12/05 05:59:58;;;;;;;;;;;20.70;40.40;;;;;;5067206;28;19967;-51
2021/12/05 06:05:09;;;;;;;;;;;20.70;40.40;;;;;;5084201;28;19925;-51
2021/12/05 06:07:42;;;;;;;;;;;20.60;40.30;;;;;;5051747;28;19931;-50
2021/12/05 06:10:09;;;;;;;;;;;20.70;40.40;;;;;;5065166;28;20027;-51
2021/12/05 06:12:37;;;;;;;;;;;20.70;40.40;;;;;;5051540;28;19925;-51
2021/12/05 06:15:04;;;;;;;;;;;20.70;40.50;;;;;;5052278;28;19986;-47
2021/12/05 06:17:31;;;;;;;;;;;20.70;40.50;;;;;;5053588;28;19986;-48
2021/12/05 06:19:58;;;;;;;;;;;20.70;40.40;;;;;;5067737;28;19925;-50
2021/12/05 06:22:25;;;;;;;;;;;20.70;40.40;;;;;;5067453;28;20046;-50
2021/12/05 06:24:52;;;;;;;;;;;20.70;40.50;;;;;;5068364;28;20004;-47
2021/12/05 06:27:18;;;;;;;;;;;20.70;40.70;;;;;;5067714;28;19988;-50
2021/12/05 06:29:52;;;;;;;;;;;20.70;40.50;;;;;;5068063;28;19928;-49
2021/12/05 06:32:39;;;;;;;;;;;20.70;40.50;;;;;;5068084;28;19936;-49
2021/12/05 06:38:05;;;;;;;;;;;20.70;40.50;;;;;;5068309;28;19925;-51
2021/12/05 06:40:49;;;;;;;;;;;20.70;40.50;;;;;;5066841;28;19951;-47
2021/12/05 06:46:03;;;;;;;;;;;20.60;40.40;;;;;;5051529;28;19990;-48
2021/12/05 06:48:29;;;;;;;;;;;20.70;40.50;;;;;;5050824;28;19925;-47
2021/12/05 06:50:56;;;;;;;;;;;20.70;40.50;;;;;;5066280;28;20062;-49
2021/12/05 06:53:23;;;;;;;;;;;20.70;40.50;;;;;;5050952;28;19936;-50
2021/12/05 06:55:49;;;;;;;;;;;20.70;40.50;;;;;;5051071;28;19929;-52
2021/12/05 06:58:16;;;;;;;;;;;20.60;40.40;;;;;;5071791;28;19935;-49
2021/12/05 07:00:43;;;;;;;;;;;20.70;40.50;;;;;;5054945;28;19931;-48
2021/12/05 07:03:11;;;;;;;;;;;20.70;40.50;;;;;;5071217;28;19931;-47
2021/12/05 07:05:44;;;;;;;;;;;20.70;40.50;;;;;;5072624;28;19964;-48
2021/12/05 07:08:13;;;;;;;;;;;20.70;40.50;;;;;;5056119;28;19924;-48
2021/12/05 07:10:47;;;;;;;;;;;20.70;40.50;;;;;;5070908;28;20020;-51
2021/12/05 07:16:21;;;;;;;;;;;20.70;40.50;;;;;;4977593;28;19925;-51
2021/12/05 07:19:04;;;;;;;;;;;20.70;40.50;;;;;;4977697;28;19930;-51
2021/12/05 07:21:39;;;;;;;;;;;20.60;40.40;;;;;;5038149;28;20020;-47
2021/12/05 07:24:13;;;;;;;;;;;20.70;40.50;;;;;;5056088;28;19936;-49
2021/12/05 07:27:07;;;;;;;;;;;20.70;40.60;;;;;;5071348;28;19933;-52
2021/12/05 07:40:34;;;;;;;;;;;20.70;40.60;;;;;;5057358;28;19929;-53
2021/12/05 07:43:01;;;;;;;;;;;20.70;40.60;;;;;;5054559;28;20314;-52
2021/12/05 07:45:38;;;;;;;;;;;20.70;40.60;;;;;;5057689;28;20297;-53
2021/12/05 07:48:10;;;;;;;;;;;20.70;40.50;;;;;;5071463;28;19979;-50
2021/12/05 07:50:45;;;;;;;;;;;20.70;40.50;;;;;;5078617;28;19935;-47
2021/12/05 07:53:20;;;;;;;;;;;20.70;40.60;;;;;;5070906;28;19924;-47
2021/12/05 07:55:49;;;;;;;;;;;20.70;40.60;;;;;;5074746;28;19936;-52
2021/12/05 07:58:30;;;;;;;;;;;20.60;40.50;;;;;;5052552;28;20058;-48
2021/12/05 08:01:04;;;;;;;;;;;20.70;40.60;;;;;;5055755;28;19929;-53
2021/12/05 08:14:42;;;;;;;;;;;20.70;40.60;;;;;;5071093;28;20020;-49
2021/12/05 08:17:15;;;;;;;;;;;20.70;40.50;;;;;;5063583;28;19960;-52
2021/12/05 08:19:42;;;;;;;;;;;20.70;40.60;;;;;;5069456;28;19964;-50
2021/12/05 08:22:10;;;;;;;;;;;20.70;40.60;;;;;;5061339;28;20027;-49
2021/12/05 08:24:41;;;;;;;;;;;20.70;40.60;;;;;;5095438;28;19977;-46
2021/12/05 08:27:08;;;;;;;;;;;20.70;40.60;;;;;;5071281;28;19983;-52
2021/12/05 08:29:41;;;;;;;;;;;20.70;40.60;;;;;;5072612;28;19928;-47
2021/12/05 08:32:21;;;;;;;;;;;20.60;40.50;;;;;;5072023;28;19924;-48
2021/12/05 08:35:00;;;;;;;;;;;20.60;40.50;;;;;;5061571;28;20019;-51
2021/12/05 09:24:48;;;;;;;;;;;20.60;40.50;;;;;;5069526;28;19967;-50
2021/12/05 10:09:11;;;;;;;;;;;20.60;40.50;;;;;;5083611;28;20294;-47
2021/12/05 10:11:44;;;;;;;;;;;20.60;40.40;;;;;;5066288;28;19970;-48
2021/12/05 10:17:24;;;;;;;;;;;20.60;40.40;;;;;;5070812;28;19925;-47
2021/12/05 10:20:25;;;;;;;;;;;20.60;40.40;;;;;;5069259;28;19986;-49
2021/12/05 10:36:17;;;;;;;;;;;20.60;40.30;;;;;;5070450;28;19944;-52
2021/12/05 10:38:47;;;;;;;;;;;20.60;40.30;;;;;;5056772;28;19925;-56
2021/12/05 10:44:02;;;;;;;;;;;20.60;40.30;;;;;;5046565;28;19925;-49
2021/12/05 10:46:29;;;;;;;;;;;20.60;40.20;;;;;;5053039;28;19925;-48
2021/12/05 10:49:00;;;;;;;;;;;20.60;40.20;;;;;;5068004;28;20384;-52
2021/12/05 10:51:28;;;;;;;;;;;20.60;40.20;;;;;;5071073;28;19925;-47
2021/12/05 10:53:55;;;;;;;;;;;20.60;40.20;;;;;;5069652;28;20026;-47
2021/12/05 10:56:23;;;;;;;;;;;20.60;40.20;;;;;;5052967;28;20362;-50
2021/12/05 10:58:51;;;;;;;;;;;20.60;40.20;;;;;;5055543;28;19939;-50
2021/12/05 11:01:22;;;;;;;;;;;20.60;40.20;;;;;;5087114;28;19955;-49
2021/12/05 11:03:50;;;;;;;;;;;20.60;40.20;;;;;;5084443;28;19975;-55
2021/12/05 11:06:19;;;;;;;;;;;20.60;34.50;;;;;;5067839;28;19970;-52
2021/12/05 11:08:47;;;;;;;;;;;20.40;31.90;;;;;;5068920;28;19925;-53
2021/12/05 11:11:14;;;;;;;;;;;20.20;30.30;;;;;;5051080;28;19931;-53
2021/12/05 11:13:43;;;;;;;;;;;19.90;29.90;;;;;;5068729;28;19975;-47
2021/12/05 11:16:24;;;;;;;;;;;19.60;29.90;;;;;;5059495;28;19925;-52
2021/12/05 11:18:52;;;;;;;;;;;19.30;29.90;;;;;;5051343;28;19925;-48
2021/12/05 11:21:30;;;;;;;;;;;19.00;30.10;;;;;;5090312;28;19939;-51
2021/12/05 11:24:10;;;;;;;;;;;18.90;31.60;;;;;;5057260;28;19978;-48
2021/12/05 11:26:36;;;;;;;;;;;18.80;33.10;;;;;;5070426;28;19933;-50
2021/12/05 11:29:03;;;;;;;;;;;18.70;34.20;;;;;;5067647;28;20448;-55
2021/12/05 11:31:30;;;;;;;;;;;18.80;35.10;;;;;;5087434;28;20249;-49
2021/12/05 11:33:58;;;;;;;;;;;18.80;35.70;;;;;;5061003;28;19928;-48
2021/12/05 11:36:24;;;;;;;;;;;18.90;36.10;;;;;;5067737;28;19925;-54
2021/12/05 11:38:53;;;;;;;;;;;18.90;36.40;;;;;;5045588;28;20115;-53
2021/12/05 11:41:20;;;;;;;;;;;18.90;36.70;;;;;;5067750;28;19925;-48
2021/12/05 11:43:47;;;;;;;;;;;19.00;36.90;;;;;;5068029;28;20411;-49
2021/12/05 11:46:15;;;;;;;;;;;19.10;37.20;;;;;;5070437;28;19925;-54
2021/12/05 11:48:43;;;;;;;;;;;19.20;37.50;;;;;;5069669;28;19990;-50
2021/12/05 11:51:27;;;;;;;;;;;19.20;37.80;;;;;;5059128;28;19940;-51
2021/12/05 11:53:56;;;;;;;;;;;19.30;38.10;;;;;;5050336;28;19970;-51
2021/12/05 11:56:24;;;;;;;;;;;19.40;38.40;;;;;;5053857;28;19996;-47
2021/12/05 11:59:05;;;;;;;;;;;19.40;38.60;;;;;;5056030;28;20339;-55
2021/12/05 12:01:34;;;;;;;;;;;19.50;38.70;;;;;;5055820;28;20394;-53
2021/12/05 12:04:01;;;;;;;;;;;19.50;38.80;;;;;;5069638;28;20357;-53
2021/12/05 12:06:29;;;;;;;;;;;19.60;39.00;;;;;;5069934;28;19936;-55
2021/12/05 12:08:57;;;;;;;;;;;19.60;39.00;;;;;;5069822;28;19921;-53
2021/12/05 12:11:24;;;;;;;;;;;19.70;39.10;;;;;;5072587;28;19935;-56
2021/12/05 12:13:51;;;;;;;;;;;19.70;39.10;;;;;;5054746;28;19982;-48
2021/12/05 12:16:18;;;;;;;;;;;19.80;39.30;;;;;;5060425;28;19952;-49
2021/12/05 12:18:48;;;;;;;;;;;19.80;39.30;;;;;;5064875;28;19924;-51
2021/12/05 12:21:17;;;;;;;;;;;19.80;39.30;;;;;;5071771;28;19964;-46
2021/12/05 12:23:43;;;;;;;;;;;19.80;39.30;;;;;;5084113;28;19933;-50
2021/12/05 12:26:12;;;;;;;;;;;19.90;39.30;;;;;;5067977;28;19979;-53
2021/12/05 12:28:39;;;;;;;;;;;19.90;39.30;;;;;;5084773;28;19928;-52
2021/12/05 12:31:06;;;;;;;;;;;19.90;39.30;;;;;;5070500;28;19966;-57
2021/12/05 12:33:33;;;;;;;;;;;20.00;39.40;;;;;;5057925;28;19929;-50
2021/12/05 12:36:00;;;;;;;;;;;20.00;39.40;;;;;;5061208;28;20049;-52
2021/12/05 12:38:33;;;;;;;;;;;20.00;39.40;;;;;;5073143;28;19931;-53
2021/12/05 12:41:00;;;;;;;;;;;20.00;39.40;;;;;;5069394;28;21080;-54
2021/12/05 12:43:48;;;;;;;;;;;20.00;39.40;;;;;;5049409;28;20019;-48
2021/12/05 12:46:17;;;;;;;;;;;20.00;39.40;;;;;;5050052;28;19988;-55
2021/12/05 12:48:44;;;;;;;;;;;20.10;39.50;;;;;;5073657;28;19937;-58
2021/12/05 12:51:24;;;;;;;;;;;20.10;39.60;;;;;;5077848;28;19940;-52
2021/12/05 12:53:54;;;;;;;;;;;20.10;39.60;;;;;;5067941;28;20352;-53
2021/12/05 12:56:22;;;;;;;;;;;20.20;39.70;;;;;;5068869;28;19924;-55
2021/12/05 12:58:50;;;;;;;;;;;20.20;39.70;;;;;;5072182;28;19983;-53
2021/12/05 13:01:34;;;;;;;;;;;20.20;39.70;;;;;;5068096;28;20429;-57
2021/12/05 13:12:28;;;;;;;;;;;20.30;39.80;;;;;;5084145;28;19925;-56
2021/12/05 13:15:05;;;;;;;;;;;20.30;39.80;;;;;;5067618;28;19924;-52
2021/12/05 13:17:50;;;;;;;;;;;20.30;39.80;;;;;;5069802;28;20084;-50
2021/12/05 13:20:17;;;;;;;;;;;20.30;39.70;;;;;;5066050;28;20035;-58
2021/12/05 13:22:58;;;;;;;;;;;20.40;39.80;;;;;;5066938;28;19937;-56
2021/12/05 13:25:25;;;;;;;;;;;20.30;39.70;;;;;;5065264;28;19925;-51
2021/12/05 13:27:52;;;;;;;;;;;20.40;39.80;;;;;;5057966;28;19924;-53
2021/12/05 13:30:28;;;;;;;;;;;20.40;39.80;;;;;;5069233;28;19969;-55
2021/12/05 13:33:09;;;;;;;;;;;20.40;39.70;;;;;;5066379;28;19925;-49
2021/12/05 13:35:40;;;;;;;;;;;20.40;39.70;;;;;;5039196;28;20450;-54
2021/12/05 13:38:07;;;;;;;;;;;20.40;39.70;;;;;;5067639;28;19957;-52
2021/12/05 13:40:34;;;;;;;;;;;20.40;39.60;;;;;;5068864;28;19925;-56
2021/12/05 13:43:05;;;;;;;;;;;20.40;39.60;;;;;;5052014;28;20277;-49
2021/12/05 13:45:35;;;;;;;;;;;20.40;39.60;;;;;;5062375;28;20031;-55
2021/12/05 13:48:15;;;;;;;;;;;20.40;39.60;;;;;;5065812;28;19924;-53
2021/12/05 13:50:57;;;;;;;;;;;20.40;39.50;;;;;;5065914;28;19924;-53
2021/12/05 13:53:35;;;;;;;;;;;20.40;39.50;;;;;;5064866;28;19929;-54
2021/12/05 13:56:06;;;;;;;;;;;20.40;39.50;;;;;;5044127;28;20015;-57
2021/12/05 13:58:38;;;;;;;;;;;20.40;39.50;;;;;;5078577;28;19925;-52
2021/12/05 14:01:06;;;;;;;;;;;20.40;39.50;;;;;;5079889;28;19936;-53
2021/12/05 14:03:44;;;;;;;;;;;20.40;39.40;;;;;;5051783;28;19983;-47
2021/12/05 14:06:24;;;;;;;;;;;20.40;39.40;;;;;;5049391;28;19982;-55
2021/12/05 14:08:52;;;;;;;;;;;20.40;39.40;;;;;;5050290;28;19929;-49
2021/12/05 14:11:19;;;;;;;;;;;20.40;39.40;;;;;;5061795;28;20442;-50
2021/12/05 14:13:46;;;;;;;;;;;20.50;39.50;;;;;;5069166;28;19960;-53
2021/12/05 14:16:16;;;;;;;;;;;20.50;39.50;;;;;;5051022;28;20043;-58
2021/12/05 14:18:45;;;;;;;;;;;20.50;39.50;;;;;;5046144;28;19933;-52
2021/12/05 14:21:12;;;;;;;;;;;20.50;39.50;;;;;;5062536;28;19932;-52
2021/12/05 14:23:40;;;;;;;;;;;20.50;39.50;;;;;;5062624;28;19928;-53
2021/12/05 14:26:14;;;;;;;;;;;20.50;39.50;;;;;;5048780;28;20015;-52
2021/12/05 14:28:41;;;;;;;;;;;20.50;39.50;;;;;;5050241;28;19933;-53
2021/12/05 14:31:08;;;;;;;;;;;20.50;39.40;;;;;;5083801;28;19933;-52
2021/12/05 14:33:46;;;;;;;;;;;20.50;39.40;;;;;;5050353;28;19974;-54
2021/12/05 14:36:18;;;;;;;;;;;20.50;39.40;;;;;;5070351;28;19924;-49
2021/12/05 14:38:47;;;;;;;;;;;20.50;39.40;;;;;;5065689;28;19925;-48
2021/12/05 14:41:14;;;;;;;;;;;20.50;39.40;;;;;;5063778;28;19936;-51
2021/12/05 14:43:40;;;;;;;;;;;20.50;39.40;;;;;;5051719;28;20429;-48
2021/12/05 14:46:07;;;;;;;;;;;20.50;39.40;;;;;;5064194;28;19987;-52
2021/12/05 14:48:34;;;;;;;;;;;20.50;39.40;;;;;;5070307;28;19932;-50
2021/12/05 14:51:02;;;;;;;;;;;20.50;39.50;;;;;;5064374;28;20300;-51
2021/12/05 14:53:29;;;;;;;;;;;20.50;39.50;;;;;;5046578;28;19925;-51
2021/12/05 14:55:58;;;;;;;;;;;20.50;39.50;;;;;;5065355;28;20373;-51
2021/12/05 14:58:25;;;;;;;;;;;20.50;39.50;;;;;;5045647;28;20019;-57
2021/12/05 15:00:54;;;;;;;;;;;20.50;39.50;;;;;;5046089;28;20017;-50
2021/12/05 15:03:21;;;;;;;;;;;20.50;39.50;;;;;;5063095;28;20023;-47
2021/12/05 15:05:49;;;;;;;;;;;20.50;39.60;;;;;;5047234;28;19936;-50
2021/12/05 15:08:16;;;;;;;;;;;20.50;39.60;;;;;;5078121;28;19983;-51
2021/12/05 15:10:43;;;;;;;;;;;20.50;39.60;;;;;;5046699;28;20403;-53
2021/12/05 15:13:12;;;;;;;;;;;20.50;39.60;;;;;;5061942;28;20015;-55
2021/12/05 15:15:39;;;;;;;;;;;20.50;39.60;;;;;;5050426;28;19929;-48
2021/12/05 15:18:06;;;;;;;;;;;20.50;39.60;;;;;;5053064;28;19950;-54
2021/12/05 15:20:33;;;;;;;;;;;20.50;39.60;;;;;;5067356;28;19928;-52
2021/12/05 15:23:01;;;;;;;;;;;20.50;39.60;;;;;;5067731;28;20412;-53
2021/12/05 15:25:28;;;;;;;;;;;20.50;39.60;;;;;;5067388;28;19929;-51
2021/12/05 15:27:55;;;;;;;;;;;20.50;39.60;;;;;;5069185;28;19939;-50
2021/12/05 15:30:25;;;;;;;;;;;20.50;39.60;;;;;;5059079;28;20401;-54
2021/12/05 15:32:52;;;;;;;;;;;20.50;39.60;;;;;;5053793;28;19991;-52
2021/12/05 15:35:19;;;;;;;;;;;20.50;39.60;;;;;;5052599;28;19935;-51
2021/12/05 15:37:46;;;;;;;;;;;20.50;39.60;;;;;;5069856;28;19929;-53
2021/12/05 15:40:13;;;;;;;;;;;20.50;39.60;;;;;;5073513;28;20014;-51
2021/12/05 15:42:40;;;;;;;;;;;20.50;39.70;;;;;;5066164;28;20044;-52
2021/12/05 15:45:08;;;;;;;;;;;20.50;39.70;;;;;;5033755;28;19975;-54
2021/12/05 15:47:39;;;;;;;;;;;20.50;39.70;;;;;;5068624;28;19929;-54
2021/12/05 15:50:07;;;;;;;;;;;20.50;39.70;;;;;;5072067;28;19924;-51
2021/12/05 15:52:35;;;;;;;;;;;20.50;39.70;;;;;;5065753;28;19976;-54
2021/12/05 15:55:02;;;;;;;;;;;20.40;39.60;;;;;;5075928;28;19983;-52
2021/12/05 15:57:32;;;;;;;;;;;20.50;40.30;;;;;;5066545;28;20015;-52
2021/12/05 15:59:59;;;;;;;;;;;20.50;39.70;;;;;;5056567;28;20309;-51
2021/12/05 16:02:26;;;;;;;;;;;20.50;39.70;;;;;;5066053;28;20267;-52
2021/12/05 16:04:56;;;;;;;;;;;20.50;39.70;;;;;;5067117;28;20534;-51
2021/12/05 16:07:25;;;;;;;;;;;20.50;39.70;;;;;;5066117;28;19929;-49
2021/12/05 16:09:52;;;;;;;;;;;20.50;39.70;;;;;;5069908;28;20006;-53
2021/12/05 16:12:19;;;;;;;;;;;20.50;39.70;;;;;;5054985;28;20301;-55
2021/12/05 16:14:46;;;;;;;;;;;20.50;39.70;;;;;;5057962;28;19975;-48
2021/12/05 16:17:14;;;;;;;;;;;20.50;39.70;;;;;;5050081;28;19925;-48
2021/12/05 16:19:40;;;;;;;;;;;20.50;39.70;;;;;;5069213;28;20027;-50
2021/12/05 16:22:10;;;;;;;;;;;20.50;39.70;;;;;;5049882;28;19992;-50
2021/12/05 16:24:40;;;;;;;;;;;20.50;39.70;;;;;;5066550;28;19960;-48
2021/12/05 16:27:07;;;;;;;;;;;20.50;39.70;;;;;;5074603;28;19925;-49
2021/12/05 16:29:33;;;;;;;;;;;20.50;39.70;;;;;;5066929;28;19936;-49
2021/12/05 16:32:00;;;;;;;;;;;20.50;39.80;;;;;;5082338;28;20168;-47
2021/12/05 16:34:28;;;;;;;;;;;20.50;39.80;;;;;;5066457;28;19978;-51
2021/12/05 16:36:56;;;;;;;;;;;20.50;39.80;;;;;;5049519;28;20365;-52
2021/12/05 16:39:29;;;;;;;;;;;20.50;39.80;;;;;;5065863;28;20381;-53
2021/12/05 16:41:56;;;;;;;;;;;20.50;39.70;;;;;;5065878;28;19950;-54
2021/12/05 16:44:23;;;;;;;;;;;20.50;39.70;;;;;;5072035;28;19932;-47
2021/12/05 16:46:51;;;;;;;;;;;20.40;39.70;;;;;;5066022;28;19929;-52
2021/12/05 16:49:19;;;;;;;;;;;20.40;39.70;;;;;;5065633;28;19968;-50
2021/12/05 16:51:47;;;;;;;;;;;20.50;39.80;;;;;;5065931;28;19982;-55
2021/12/05 16:54:16;;;;;;;;;;;20.50;39.80;;;;;;5069143;28;19948;-50
2021/12/05 16:56:48;;;;;;;;;;;20.50;39.80;;;;;;5050932;28;20258;-48
2021/12/05 16:59:16;;;;;;;;;;;20.50;39.80;;;;;;5048988;28;19951;-50
2021/12/05 17:01:43;;;;;;;;;;;20.50;39.80;;;;;;5065642;28;19976;-49
2021/12/05 17:04:11;;;;;;;;;;;20.40;39.70;;;;;;5065174;28;19940;-50
2021/12/05 17:06:45;;;;;;;;;;;20.50;39.80;;;;;;5065485;28;19940;-57
2021/12/05 17:09:12;;;;;;;;;;;20.50;39.80;;;;;;5064028;28;20449;-52
2021/12/05 17:11:38;;;;;;;;;;;20.50;39.80;;;;;;5047081;28;20011;-51
2021/12/05 17:14:07;;;;;;;;;;;20.50;39.80;;;;;;5063930;28;19932;-51
2021/12/05 17:16:39;;;;;;;;;;;20.50;39.80;;;;;;5047957;28;20017;-51
2021/12/05 17:19:08;;;;;;;;;;;20.50;39.80;;;;;;5063554;28;19979;-52
2021/12/05 17:21:36;;;;;;;;;;;20.50;39.80;;;;;;5063965;28;19928;-51
2021/12/05 17:24:12;;;;;;;;;;;20.50;39.80;;;;;;5046634;28;19932;-47
2021/12/05 17:26:39;;;;;;;;;;;20.50;39.80;;;;;;5048773;28;19967;-50
2021/12/05 17:29:08;;;;;;;;;;;20.50;39.80;;;;;;5063610;28;19924;-48
2021/12/05 17:31:38;;;;;;;;;;;20.50;39.80;;;;;;5064177;28;19928;-53
2021/12/05 17:34:06;;;;;;;;;;;20.50;39.80;;;;;;5063211;28;19941;-52
2021/12/05 17:36:33;;;;;;;;;;;20.50;39.90;;;;;;5063539;28;19936;-49
2021/12/05 17:39:01;;;;;;;;;;;20.50;39.90;;;;;;5063454;28;19968;-51
2021/12/05 17:41:29;;;;;;;;;;;20.50;39.90;;;;;;5086743;28;19956;-53
2021/12/05 17:43:56;;;;;;;;;;;20.50;39.90;;;;;;5047949;28;19991;-49
2021/12/05 17:46:24;;;;;;;;;;;20.50;39.80;;;;;;5048201;28;19947;-49
2021/12/05 17:48:51;;;;;;;;;;;20.50;39.80;;;;;;5048258;28;20031;-55
2021/12/05 17:51:19;;;;;;;;;;;20.50;39.80;;;;;;5063854;28;19925;-55
2021/12/05 17:53:47;;;;;;;;;;;20.50;39.80;;;;;;5063686;28;19939;-48
2021/12/05 17:56:20;;;;;;;;;;;20.50;39.80;;;;;;5048087;28;19925;-48
2021/12/05 17:59:12;;;;;;;;;;;20.50;39.90;;;;;;5067436;28;19983;-49
2021/12/05 18:04:26;;;;;;;;;;;20.50;39.90;;;;;;5044100;28;20015;-50
2021/12/05 18:06:53;;;;;;;;;;;20.50;39.90;;;;;;5062565;28;19932;-48
2021/12/05 18:09:20;;;;;;;;;;;20.50;39.90;;;;;;5067262;28;19951;-52
2021/12/05 18:11:47;;;;;;;;;;;20.50;39.80;;;;;;5064946;28;19928;-53
2021/12/05 18:14:14;;;;;;;;;;;20.50;39.90;;;;;;5056182;28;19925;-54
2021/12/05 18:16:43;;;;;;;;;;;20.50;39.90;;;;;;5047171;28;19925;-54
2021/12/05 18:19:11;;;;;;;;;;;20.50;39.80;;;;;;5063122;28;20272;-50
2021/12/05 18:21:38;;;;;;;;;;;20.50;39.90;;;;;;5054874;28;19925;-51
2021/12/05 18:24:05;;;;;;;;;;;20.50;39.90;;;;;;5064427;28;20023;-49
2021/12/05 18:26:32;;;;;;;;;;;20.50;39.90;;;;;;5056348;28;20015;-47
2021/12/05 18:28:59;;;;;;;;;;;20.50;39.90;;;;;;5064377;28;19928;-57
2021/12/05 18:31:26;;;;;;;;;;;20.50;39.90;;;;;;5066542;28;19929;-57
2021/12/05 18:33:55;;;;;;;;;;;20.50;39.90;;;;;;5067556;28;20369;-54
2021/12/05 18:36:24;;;;;;;;;;;20.50;39.90;;;;;;5065374;28;19932;-56
2021/12/05 18:38:51;;;;;;;;;;;20.50;39.90;;;;;;5046287;28;19940;-59
2021/12/05 18:41:18;;;;;;;;;;;20.50;39.90;;;;;;5046606;28;20350;-53
2021/12/05 18:43:45;;;;;;;;;;;20.40;39.80;;;;;;5048044;28;19929;-52
2021/12/05 18:46:13;;;;;;;;;;;20.50;39.90;;;;;;5047231;28;20027;-48
2021/12/05 18:48:41;;;;;;;;;;;20.50;39.90;;;;;;5047351;28;19928;-53
2021/12/05 18:51:13;;;;;;;;;;;20.50;39.90;;;;;;5044101;28;19987;-56
2021/12/05 18:53:41;;;;;;;;;;;20.50;39.90;;;;;;5067184;28;19940;-52
2021/12/05 18:56:08;;;;;;;;;;;20.50;40.50;;;;;;5069312;28;19936;-54